sensor_id;sensor_type;location;lat;lon;timestamp;P1;durP1;ratioP1;P2;durP2;ratioP2
53052;SDS011;38934;52.690;6.184;2023-07-13T00:01:50;8.85;;;2.63;;
53052;SDS011;38934;52.690;6.184;2023-07-13T00:04:20;7.25;;;3.10;;
53052;SDS011;38934;52.690;6.184;2023-07-13T00:06:48;12.25;;;3.10;;
53052;SDS011;38934;52.690;6.184;2023-07-13T00:09:15;11.68;;;2.95;;
53052;SDS011;38934;52.690;6.184;2023-07-13T00:11:42;9.25;;;3.35;;
53052;SDS011;38934;52.690;6.184;2023-07-13T00:14:09;12.40;;;3.85;;
53052;SDS011;38934;52.690;6.184;2023-07-13T00:16:36;11.65;;;3.63;;
53052;SDS011;38934;52.690;6.184;2023-07-13T00:19:03;8.20;;;2.90;;
53052;SDS011;38934;52.690;6.184;2023-07-13T00:21:29;8.60;;;3.17;;
53052;SDS011;38934;52.690;6.184;2023-07-13T00:23:56;9.10;;;2.92;;
53052;SDS011;38934;52.690;6.184;2023-07-13T00:26:22;7.82;;;3.20;;
53052;SDS011;38934;52.690;6.184;2023-07-13T00:28:48;8.23;;;2.83;;
53052;SDS011;38934;52.690;6.184;2023-07-13T00:31:14;7.30;;;2.88;;
53052;SDS011;38934;52.690;6.184;2023-07-13T00:33:40;10.40;;;3.20;;
53052;SDS011;38934;52.690;6.184;2023-07-13T00:36:07;9.75;;;3.20;;
53052;SDS011;38934;52.690;6.184;2023-07-13T00:38:34;8.70;;;3.03;;
53052;SDS011;38934;52.690;6.184;2023-07-13T00:41:00;11.00;;;3.40;;
53052;SDS011;38934;52.690;6.184;2023-07-13T00:43:26;11.07;;;3.33;;
53052;SDS011;38934;52.690;6.184;2023-07-13T00:48:20;9.85;;;3.15;;
53052;SDS011;38934;52.690;6.184;2023-07-13T00:50:48;8.95;;;3.42;;
53052;SDS011;38934;52.690;6.184;2023-07-13T00:53:18;7.80;;;3.08;;
53052;SDS011;38934;52.690;6.184;2023-07-13T00:55:44;7.38;;;3.05;;
53052;SDS011;38934;52.690;6.184;2023-07-13T00:58:11;8.32;;;3.05;;
53052;SDS011;38934;52.690;6.184;2023-07-13T01:00:38;11.65;;;3.75;;
53052;SDS011;38934;52.690;6.184;2023-07-13T01:03:05;9.13;;;3.15;;
53052;SDS011;38934;52.690;6.184;2023-07-13T01:05:34;13.57;;;3.78;;
53052;SDS011;38934;52.690;6.184;2023-07-13T01:08:00;9.95;;;2.90;;
53052;SDS011;38934;52.690;6.184;2023-07-13T01:10:27;7.88;;;3.40;;
53052;SDS011;38934;52.690;6.184;2023-07-13T01:12:53;9.77;;;3.08;;
53052;SDS011;38934;52.690;6.184;2023-07-13T01:18:22;7.30;;;2.60;;
53052;SDS011;38934;52.690;6.184;2023-07-13T01:20:56;7.82;;;3.45;;
53052;SDS011;38934;52.690;6.184;2023-07-13T01:23:23;8.20;;;3.10;;
53052;SDS011;38934;52.690;6.184;2023-07-13T01:25:50;9.77;;;3.00;;
53052;SDS011;38934;52.690;6.184;2023-07-13T01:28:17;9.13;;;3.40;;
53052;SDS011;38934;52.690;6.184;2023-07-13T01:30:43;9.85;;;3.15;;
53052;SDS011;38934;52.690;6.184;2023-07-13T01:33:12;8.15;;;3.30;;
53052;SDS011;38934;52.690;6.184;2023-07-13T01:35:39;10.07;;;3.90;;
53052;SDS011;38934;52.690;6.184;2023-07-13T01:38:05;10.13;;;3.42;;
53052;SDS011;38934;52.690;6.184;2023-07-13T01:40:31;10.98;;;3.15;;
53052;SDS011;38934;52.690;6.184;2023-07-13T01:42:57;8.75;;;3.00;;
53052;SDS011;38934;52.690;6.184;2023-07-13T01:45:23;8.85;;;3.10;;
53052;SDS011;38934;52.690;6.184;2023-07-13T01:47:49;7.35;;;3.17;;
53052;SDS011;38934;52.690;6.184;2023-07-13T01:50:15;9.27;;;3.65;;
53052;SDS011;38934;52.690;6.184;2023-07-13T01:52:41;9.15;;;2.90;;
53052;SDS011;38934;52.690;6.184;2023-07-13T01:55:07;11.68;;;3.35;;
53052;SDS011;38934;52.690;6.184;2023-07-13T01:57:33;11.15;;;3.50;;
53052;SDS011;38934;52.690;6.184;2023-07-13T01:59:59;10.25;;;3.30;;
53052;SDS011;38934;52.690;6.184;2023-07-13T02:02:26;11.73;;;3.53;;
53052;SDS011;38934;52.690;6.184;2023-07-13T02:04:52;11.48;;;3.35;;
53052;SDS011;38934;52.690;6.184;2023-07-13T02:07:17;11.00;;;3.67;;
53052;SDS011;38934;52.690;6.184;2023-07-13T02:09:43;10.55;;;3.38;;
53052;SDS011;38934;52.690;6.184;2023-07-13T02:12:09;12.85;;;3.38;;
53052;SDS011;38934;52.690;6.184;2023-07-13T02:14:35;9.00;;;3.10;;
53052;SDS011;38934;52.690;6.184;2023-07-13T02:17:00;7.90;;;3.10;;
53052;SDS011;38934;52.690;6.184;2023-07-13T02:19:26;8.63;;;3.40;;
53052;SDS011;38934;52.690;6.184;2023-07-13T02:21:52;10.65;;;3.67;;
53052;SDS011;38934;52.690;6.184;2023-07-13T02:24:17;9.95;;;3.50;;
53052;SDS011;38934;52.690;6.184;2023-07-13T02:26:46;7.88;;;3.50;;
53052;SDS011;38934;52.690;6.184;2023-07-13T02:29:11;6.15;;;2.90;;
53052;SDS011;38934;52.690;6.184;2023-07-13T02:31:37;8.68;;;3.50;;
53052;SDS011;38934;52.690;6.184;2023-07-13T02:34:03;9.05;;;3.40;;
53052;SDS011;38934;52.690;6.184;2023-07-13T02:36:29;11.05;;;3.00;;
53052;SDS011;38934;52.690;6.184;2023-07-13T02:38:57;10.35;;;3.30;;
53052;SDS011;38934;52.690;6.184;2023-07-13T02:41:26;11.93;;;3.90;;
53052;SDS011;38934;52.690;6.184;2023-07-13T02:43:52;8.32;;;3.30;;
53052;SDS011;38934;52.690;6.184;2023-07-13T02:46:18;9.48;;;3.60;;
53052;SDS011;38934;52.690;6.184;2023-07-13T02:48:45;10.75;;;3.50;;
53052;SDS011;38934;52.690;6.184;2023-07-13T02:51:11;11.15;;;3.35;;
53052;SDS011;38934;52.690;6.184;2023-07-13T02:53:36;11.38;;;3.72;;
53052;SDS011;38934;52.690;6.184;2023-07-13T02:56:03;11.18;;;3.80;;
53052;SDS011;38934;52.690;6.184;2023-07-13T02:58:29;9.40;;;3.22;;
53052;SDS011;38934;52.690;6.184;2023-07-13T03:00:56;9.93;;;3.28;;
53052;SDS011;38934;52.690;6.184;2023-07-13T03:03:22;11.35;;;3.35;;
53052;SDS011;38934;52.690;6.184;2023-07-13T03:05:57;10.68;;;3.40;;
53052;SDS011;38934;52.690;6.184;2023-07-13T03:08:25;15.70;;;3.90;;
53052;SDS011;38934;52.690;6.184;2023-07-13T03:11:04;9.77;;;3.25;;
53052;SDS011;38934;52.690;6.184;2023-07-13T03:13:36;12.98;;;3.50;;
53052;SDS011;38934;52.690;6.184;2023-07-13T03:16:02;13.80;;;3.60;;
53052;SDS011;38934;52.690;6.184;2023-07-13T03:18:28;12.63;;;3.88;;
53052;SDS011;38934;52.690;6.184;2023-07-13T03:20:53;8.65;;;3.13;;
53052;SDS011;38934;52.690;6.184;2023-07-13T03:23:20;14.45;;;3.72;;
53052;SDS011;38934;52.690;6.184;2023-07-13T03:25:46;10.02;;;3.47;;
53052;SDS011;38934;52.690;6.184;2023-07-13T03:28:13;9.77;;;3.60;;
53052;SDS011;38934;52.690;6.184;2023-07-13T03:30:40;10.95;;;3.20;;
53052;SDS011;38934;52.690;6.184;2023-07-13T03:33:06;9.68;;;3.55;;
53052;SDS011;38934;52.690;6.184;2023-07-13T03:35:32;10.43;;;3.30;;
53052;SDS011;38934;52.690;6.184;2023-07-13T03:37:59;13.15;;;3.90;;
53052;SDS011;38934;52.690;6.184;2023-07-13T03:40:25;12.05;;;3.90;;
53052;SDS011;38934;52.690;6.184;2023-07-13T03:42:53;9.13;;;3.65;;
53052;SDS011;38934;52.690;6.184;2023-07-13T03:45:19;13.68;;;3.50;;
53052;SDS011;38934;52.690;6.184;2023-07-13T03:47:45;11.65;;;3.83;;
53052;SDS011;38934;52.690;6.184;2023-07-13T03:50:11;10.60;;;3.70;;
53052;SDS011;38934;52.690;6.184;2023-07-13T03:52:36;8.68;;;3.38;;
53052;SDS011;38934;52.690;6.184;2023-07-13T03:55:02;9.20;;;3.47;;
53052;SDS011;38934;52.690;6.184;2023-07-13T03:57:28;8.50;;;3.53;;
53052;SDS011;38934;52.690;6.184;2023-07-13T03:59:54;9.40;;;3.40;;
53052;SDS011;38934;52.690;6.184;2023-07-13T04:02:20;12.85;;;4.07;;
53052;SDS011;38934;52.690;6.184;2023-07-13T04:04:46;11.32;;;3.70;;
53052;SDS011;38934;52.690;6.184;2023-07-13T04:07:11;12.25;;;3.65;;
53052;SDS011;38934;52.690;6.184;2023-07-13T04:09:37;12.00;;;4.00;;
53052;SDS011;38934;52.690;6.184;2023-07-13T04:12:03;10.55;;;3.70;;
53052;SDS011;38934;52.690;6.184;2023-07-13T04:14:30;10.38;;;3.60;;
53052;SDS011;38934;52.690;6.184;2023-07-13T04:16:55;10.70;;;3.78;;
53052;SDS011;38934;52.690;6.184;2023-07-13T04:19:22;10.43;;;3.78;;
53052;SDS011;38934;52.690;6.184;2023-07-13T04:21:48;11.20;;;4.10;;
53052;SDS011;38934;52.690;6.184;2023-07-13T04:24:13;8.77;;;4.25;;
53052;SDS011;38934;52.690;6.184;2023-07-13T04:26:39;9.85;;;4.15;;
53052;SDS011;38934;52.690;6.184;2023-07-13T04:29:05;15.27;;;4.65;;
53052;SDS011;38934;52.690;6.184;2023-07-13T04:31:32;9.07;;;3.53;;
53052;SDS011;38934;52.690;6.184;2023-07-13T04:33:58;12.40;;;4.28;;
53052;SDS011;38934;52.690;6.184;2023-07-13T04:36:25;12.45;;;4.20;;
53052;SDS011;38934;52.690;6.184;2023-07-13T04:38:54;8.55;;;3.53;;
53052;SDS011;38934;52.690;6.184;2023-07-13T04:41:20;11.40;;;3.78;;
53052;SDS011;38934;52.690;6.184;2023-07-13T04:43:46;11.52;;;4.25;;
53052;SDS011;38934;52.690;6.184;2023-07-13T04:46:14;13.13;;;3.70;;
53052;SDS011;38934;52.690;6.184;2023-07-13T04:48:42;9.57;;;3.55;;
53052;SDS011;38934;52.690;6.184;2023-07-13T04:51:08;11.82;;;3.95;;
53052;SDS011;38934;52.690;6.184;2023-07-13T04:53:34;12.63;;;5.00;;
53052;SDS011;38934;52.690;6.184;2023-07-13T04:56:01;10.55;;;3.72;;
53052;SDS011;38934;52.690;6.184;2023-07-13T04:58:27;11.35;;;4.35;;
53052;SDS011;38934;52.690;6.184;2023-07-13T05:00:53;10.23;;;3.88;;
53052;SDS011;38934;52.690;6.184;2023-07-13T05:03:25;10.93;;;3.55;;
53052;SDS011;38934;52.690;6.184;2023-07-13T05:05:57;8.88;;;3.63;;
53052;SDS011;38934;52.690;6.184;2023-07-13T05:08:25;8.77;;;3.33;;
53052;SDS011;38934;52.690;6.184;2023-07-13T05:10:51;10.52;;;3.33;;
53052;SDS011;38934;52.690;6.184;2023-07-13T05:13:17;11.55;;;3.47;;
53052;SDS011;38934;52.690;6.184;2023-07-13T05:15:44;7.03;;;3.15;;
53052;SDS011;38934;52.690;6.184;2023-07-13T05:18:10;10.73;;;3.35;;
53052;SDS011;38934;52.690;6.184;2023-07-13T05:20:35;8.52;;;3.33;;
53052;SDS011;38934;52.690;6.184;2023-07-13T05:23:01;6.90;;;2.75;;
53052;SDS011;38934;52.690;6.184;2023-07-13T05:25:27;8.35;;;3.15;;
53052;SDS011;38934;52.690;6.184;2023-07-13T05:27:53;8.93;;;3.47;;
53052;SDS011;38934;52.690;6.184;2023-07-13T05:30:18;7.53;;;2.95;;
53052;SDS011;38934;52.690;6.184;2023-07-13T05:32:44;7.68;;;3.30;;
53052;SDS011;38934;52.690;6.184;2023-07-13T05:35:10;7.63;;;3.00;;
53052;SDS011;38934;52.690;6.184;2023-07-13T05:37:37;11.35;;;3.25;;
53052;SDS011;38934;52.690;6.184;2023-07-13T05:40:03;9.80;;;3.33;;
53052;SDS011;38934;52.690;6.184;2023-07-13T05:42:29;10.32;;;3.42;;
53052;SDS011;38934;52.690;6.184;2023-07-13T05:44:56;8.68;;;3.35;;
53052;SDS011;38934;52.690;6.184;2023-07-13T05:47:22;9.32;;;3.83;;
53052;SDS011;38934;52.690;6.184;2023-07-13T05:49:48;9.57;;;3.42;;
53052;SDS011;38934;52.690;6.184;2023-07-13T05:52:13;9.77;;;3.33;;
53052;SDS011;38934;52.690;6.184;2023-07-13T05:54:39;7.80;;;3.28;;
53052;SDS011;38934;52.690;6.184;2023-07-13T05:57:05;10.50;;;3.97;;
53052;SDS011;38934;52.690;6.184;2023-07-13T05:59:30;9.55;;;3.40;;
53052;SDS011;38934;52.690;6.184;2023-07-13T06:01:56;10.73;;;3.67;;
53052;SDS011;38934;52.690;6.184;2023-07-13T06:04:22;8.77;;;3.30;;
53052;SDS011;38934;52.690;6.184;2023-07-13T06:06:48;9.80;;;3.45;;
53052;SDS011;38934;52.690;6.184;2023-07-13T06:09:14;9.75;;;2.83;;
53052;SDS011;38934;52.690;6.184;2023-07-13T06:11:39;7.70;;;3.35;;
53052;SDS011;38934;52.690;6.184;2023-07-13T06:14:05;10.73;;;3.38;;
53052;SDS011;38934;52.690;6.184;2023-07-13T06:16:31;8.05;;;2.85;;
53052;SDS011;38934;52.690;6.184;2023-07-13T06:18:57;5.80;;;2.67;;
53052;SDS011;38934;52.690;6.184;2023-07-13T06:21:23;10.85;;;3.53;;
53052;SDS011;38934;52.690;6.184;2023-07-13T06:23:49;9.25;;;3.13;;
53052;SDS011;38934;52.690;6.184;2023-07-13T06:26:17;10.45;;;3.33;;
53052;SDS011;38934;52.690;6.184;2023-07-13T06:28:43;9.18;;;3.17;;
53052;SDS011;38934;52.690;6.184;2023-07-13T06:31:10;11.43;;;3.28;;
53052;SDS011;38934;52.690;6.184;2023-07-13T06:33:37;10.73;;;3.35;;
53052;SDS011;38934;52.690;6.184;2023-07-13T06:36:04;11.63;;;3.72;;
53052;SDS011;38934;52.690;6.184;2023-07-13T06:38:30;8.85;;;3.20;;
53052;SDS011;38934;52.690;6.184;2023-07-13T06:40:57;9.43;;;3.40;;
53052;SDS011;38934;52.690;6.184;2023-07-13T06:43:22;8.70;;;3.40;;
53052;SDS011;38934;52.690;6.184;2023-07-13T06:45:50;10.52;;;3.35;;
53052;SDS011;38934;52.690;6.184;2023-07-13T06:48:17;12.18;;;3.80;;
53052;SDS011;38934;52.690;6.184;2023-07-13T06:50:44;8.65;;;3.20;;
53052;SDS011;38934;52.690;6.184;2023-07-13T06:53:11;11.10;;;6.05;;
53052;SDS011;38934;52.690;6.184;2023-07-13T06:55:38;12.10;;;3.92;;
53052;SDS011;38934;52.690;6.184;2023-07-13T06:58:04;10.80;;;3.17;;
53052;SDS011;38934;52.690;6.184;2023-07-13T07:00:31;11.00;;;3.67;;
53052;SDS011;38934;52.690;6.184;2023-07-13T07:02:57;9.75;;;3.40;;
53052;SDS011;38934;52.690;6.184;2023-07-13T07:05:23;11.45;;;3.80;;
53052;SDS011;38934;52.690;6.184;2023-07-13T07:07:49;12.38;;;4.10;;
53052;SDS011;38934;52.690;6.184;2023-07-13T07:10:19;10.55;;;3.90;;
53052;SDS011;38934;52.690;6.184;2023-07-13T07:12:45;10.88;;;3.90;;
53052;SDS011;38934;52.690;6.184;2023-07-13T07:15:10;10.82;;;3.95;;
53052;SDS011;38934;52.690;6.184;2023-07-13T07:17:36;9.43;;;4.30;;
53052;SDS011;38934;52.690;6.184;2023-07-13T07:20:02;12.07;;;4.18;;
53052;SDS011;38934;52.690;6.184;2023-07-13T07:22:29;13.10;;;4.85;;
53052;SDS011;38934;52.690;6.184;2023-07-13T07:24:55;12.13;;;4.60;;
53052;SDS011;38934;52.690;6.184;2023-07-13T07:27:21;12.45;;;4.63;;
53052;SDS011;38934;52.690;6.184;2023-07-13T07:29:47;13.75;;;4.30;;
53052;SDS011;38934;52.690;6.184;2023-07-13T07:32:13;12.35;;;4.45;;
53052;SDS011;38934;52.690;6.184;2023-07-13T07:34:38;12.18;;;4.63;;
53052;SDS011;38934;52.690;6.184;2023-07-13T07:37:04;14.85;;;4.63;;
53052;SDS011;38934;52.690;6.184;2023-07-13T07:39:30;13.18;;;4.40;;
53052;SDS011;38934;52.690;6.184;2023-07-13T07:41:57;10.65;;;4.75;;
53052;SDS011;38934;52.690;6.184;2023-07-13T07:44:23;12.52;;;4.28;;
53052;SDS011;38934;52.690;6.184;2023-07-13T07:46:49;10.48;;;4.05;;
53052;SDS011;38934;52.690;6.184;2023-07-13T07:49:15;14.05;;;4.32;;
53052;SDS011;38934;52.690;6.184;2023-07-13T07:51:41;9.68;;;4.05;;
53052;SDS011;38934;52.690;6.184;2023-07-13T07:54:06;11.85;;;4.30;;
53052;SDS011;38934;52.690;6.184;2023-07-13T07:56:32;10.57;;;4.13;;
53052;SDS011;38934;52.690;6.184;2023-07-13T07:58:58;10.45;;;3.63;;
53052;SDS011;38934;52.690;6.184;2023-07-13T08:01:24;9.73;;;3.85;;
53052;SDS011;38934;52.690;6.184;2023-07-13T08:03:50;11.55;;;4.18;;
53052;SDS011;38934;52.690;6.184;2023-07-13T08:06:15;11.45;;;4.18;;
53052;SDS011;38934;52.690;6.184;2023-07-13T08:08:41;11.38;;;4.00;;
53052;SDS011;38934;52.690;6.184;2023-07-13T08:11:07;11.48;;;4.20;;
53052;SDS011;38934;52.690;6.184;2023-07-13T08:13:34;10.32;;;3.80;;
53052;SDS011;38934;52.690;6.184;2023-07-13T08:16:00;8.02;;;3.65;;
53052;SDS011;38934;52.690;6.184;2023-07-13T08:18:26;11.05;;;3.50;;
53052;SDS011;38934;52.690;6.184;2023-07-13T08:20:53;9.95;;;3.38;;
53052;SDS011;38934;52.690;6.184;2023-07-13T08:23:21;10.18;;;3.55;;
53052;SDS011;38934;52.690;6.184;2023-07-13T08:25:51;9.65;;;4.40;;
53052;SDS011;38934;52.690;6.184;2023-07-13T08:28:19;9.55;;;3.97;;
53052;SDS011;38934;52.690;6.184;2023-07-13T08:30:45;13.55;;;4.43;;
53052;SDS011;38934;52.690;6.184;2023-07-13T08:33:20;10.68;;;3.90;;
53052;SDS011;38934;52.690;6.184;2023-07-13T08:35:49;8.77;;;3.15;;
53052;SDS011;38934;52.690;6.184;2023-07-13T08:38:15;8.25;;;3.10;;
53052;SDS011;38934;52.690;6.184;2023-07-13T08:40:42;17.20;;;3.72;;
53052;SDS011;38934;52.690;6.184;2023-07-13T08:43:13;11.70;;;3.67;;
53052;SDS011;38934;52.690;6.184;2023-07-13T08:45:44;13.18;;;3.88;;
53052;SDS011;38934;52.690;6.184;2023-07-13T08:50:56;8.07;;;3.67;;
53052;SDS011;38934;52.690;6.184;2023-07-13T08:53:34;7.57;;;3.35;;
53052;SDS011;38934;52.690;6.184;2023-07-13T08:56:05;5.53;;;3.30;;
53052;SDS011;38934;52.690;6.184;2023-07-13T08:58:39;15.68;;;4.80;;
53052;SDS011;38934;52.690;6.184;2023-07-13T09:01:17;7.43;;;4.68;;
53052;SDS011;38934;52.690;6.184;2023-07-13T09:06:42;6.32;;;3.78;;
53052;SDS011;38934;52.690;6.184;2023-07-13T09:12:23;7.97;;;4.40;;
53052;SDS011;38934;52.690;6.184;2023-07-13T09:14:52;8.10;;;4.20;;
53052;SDS011;38934;52.690;6.184;2023-07-13T09:17:22;9.18;;;4.00;;
53052;SDS011;38934;52.690;6.184;2023-07-13T09:22:38;5.65;;;4.35;;
53052;SDS011;38934;52.690;6.184;2023-07-13T09:25:11;7.40;;;4.30;;
53052;SDS011;38934;52.690;6.184;2023-07-13T09:28:15;10.48;;;5.47;;
53052;SDS011;38934;52.690;6.184;2023-07-13T09:33:42;6.60;;;4.72;;
53052;SDS011;38934;52.690;6.184;2023-07-13T09:36:16;7.80;;;5.05;;
53052;SDS011;38934;52.690;6.184;2023-07-13T09:38:45;10.15;;;5.88;;
53052;SDS011;38934;52.690;6.184;2023-07-13T09:41:21;9.57;;;5.95;;
53052;SDS011;38934;52.690;6.184;2023-07-13T09:44:00;10.35;;;6.25;;
53052;SDS011;38934;52.690;6.184;2023-07-13T09:46:37;12.10;;;6.78;;
53052;SDS011;38934;52.690;6.184;2023-07-13T09:49:09;12.40;;;7.57;;
53052;SDS011;38934;52.690;6.184;2023-07-13T09:51:36;15.77;;;9.73;;
53052;SDS011;38934;52.690;6.184;2023-07-13T09:54:04;14.65;;;9.43;;
53052;SDS011;38934;52.690;6.184;2023-07-13T09:56:30;14.10;;;8.73;;
53052;SDS011;38934;52.690;6.184;2023-07-13T09:58:57;15.10;;;9.13;;
53052;SDS011;38934;52.690;6.184;2023-07-13T10:01:33;11.70;;;8.23;;
53052;SDS011;38934;52.690;6.184;2023-07-13T10:04:01;14.45;;;8.20;;
53052;SDS011;38934;52.690;6.184;2023-07-13T10:06:36;9.35;;;7.00;;
53052;SDS011;38934;52.690;6.184;2023-07-13T10:09:01;10.57;;;6.10;;
53052;SDS011;38934;52.690;6.184;2023-07-13T10:11:28;10.75;;;6.75;;
53052;SDS011;38934;52.690;6.184;2023-07-13T10:13:59;10.10;;;5.78;;
53052;SDS011;38934;52.690;6.184;2023-07-13T10:16:31;6.75;;;4.40;;
53052;SDS011;38934;52.690;6.184;2023-07-13T10:18:59;7.35;;;4.78;;
53052;SDS011;38934;52.690;6.184;2023-07-13T10:24:38;9.80;;;5.38;;
53052;SDS011;38934;52.690;6.184;2023-07-13T10:27:23;7.85;;;4.78;;
53052;SDS011;38934;52.690;6.184;2023-07-13T10:30:00;8.55;;;5.03;;
53052;SDS011;38934;52.690;6.184;2023-07-13T10:32:36;8.18;;;4.72;;
53052;SDS011;38934;52.690;6.184;2023-07-13T10:35:02;8.07;;;5.40;;
53052;SDS011;38934;52.690;6.184;2023-07-13T10:37:30;9.23;;;5.20;;
53052;SDS011;38934;52.690;6.184;2023-07-13T10:40:02;5.50;;;4.22;;
53052;SDS011;38934;52.690;6.184;2023-07-13T10:42:32;6.35;;;3.47;;
53052;SDS011;38934;52.690;6.184;2023-07-13T10:45:02;6.13;;;3.50;;
53052;SDS011;38934;52.690;6.184;2023-07-13T10:47:38;5.03;;;3.45;;
53052;SDS011;38934;52.690;6.184;2023-07-13T10:50:05;6.28;;;3.55;;
53052;SDS011;38934;52.690;6.184;2023-07-13T10:58:01;4.57;;;3.20;;
53052;SDS011;38934;52.690;6.184;2023-07-13T11:00:31;7.15;;;3.67;;
53052;SDS011;38934;52.690;6.184;2023-07-13T11:03:10;6.70;;;3.75;;
53052;SDS011;38934;52.690;6.184;2023-07-13T11:05:40;5.72;;;3.60;;
53052;SDS011;38934;52.690;6.184;2023-07-13T11:08:18;6.18;;;3.63;;
53052;SDS011;38934;52.690;6.184;2023-07-13T11:10:56;6.05;;;3.65;;
53052;SDS011;38934;52.690;6.184;2023-07-13T11:16:14;5.85;;;3.80;;
53052;SDS011;38934;52.690;6.184;2023-07-13T11:24:54;7.57;;;3.90;;
53052;SDS011;38934;52.690;6.184;2023-07-13T11:27:42;6.28;;;3.58;;
53052;SDS011;38934;52.690;6.184;2023-07-13T11:33:11;5.70;;;3.20;;
53052;SDS011;38934;52.690;6.184;2023-07-13T11:36:05;7.28;;;3.40;;
53052;SDS011;38934;52.690;6.184;2023-07-13T11:38:38;6.20;;;3.25;;
53052;SDS011;38934;52.690;6.184;2023-07-13T11:41:14;6.50;;;2.88;;
53052;SDS011;38934;52.690;6.184;2023-07-13T11:46:45;7.38;;;2.38;;
53052;SDS011;38934;52.690;6.184;2023-07-13T11:51:43;8.38;;;2.65;;
53052;SDS011;38934;52.690;6.184;2023-07-13T11:54:22;9.35;;;2.65;;
53052;SDS011;38934;52.690;6.184;2023-07-13T11:56:51;4.00;;;2.00;;
53052;SDS011;38934;52.690;6.184;2023-07-13T11:59:19;4.60;;;2.30;;
53052;SDS011;38934;52.690;6.184;2023-07-13T12:01:47;5.97;;;2.85;;
53052;SDS011;38934;52.690;6.184;2023-07-13T12:04:21;8.45;;;2.35;;
53052;SDS011;38934;52.690;6.184;2023-07-13T12:07:30;5.25;;;2.38;;
53052;SDS011;38934;52.690;6.184;2023-07-13T12:09:48;5.25;;;2.15;;
53052;SDS011;38934;52.690;6.184;2023-07-13T12:12:20;5.25;;;2.28;;
53052;SDS011;38934;52.690;6.184;2023-07-13T12:14:50;5.25;;;2.20;;
53052;SDS011;38934;52.690;6.184;2023-07-13T12:17:30;5.45;;;2.30;;
53052;SDS011;38934;52.690;6.184;2023-07-13T12:19:56;4.63;;;2.20;;
53052;SDS011;38934;52.690;6.184;2023-07-13T12:22:22;3.30;;;2.03;;
53052;SDS011;38934;52.690;6.184;2023-07-13T12:24:48;5.25;;;2.00;;
53052;SDS011;38934;52.690;6.184;2023-07-13T12:27:18;4.53;;;1.88;;
53052;SDS011;38934;52.690;6.184;2023-07-13T12:29:51;3.95;;;1.90;;
53052;SDS011;38934;52.690;6.184;2023-07-13T12:32:23;5.82;;;1.80;;
53052;SDS011;38934;52.690;6.184;2023-07-13T12:34:57;3.80;;;1.85;;
53052;SDS011;38934;52.690;6.184;2023-07-13T12:37:35;3.47;;;1.90;;
53052;SDS011;38934;52.690;6.184;2023-07-13T12:40:01;4.55;;;2.05;;
53052;SDS011;38934;52.690;6.184;2023-07-13T12:42:33;6.85;;;1.95;;
53052;SDS011;38934;52.690;6.184;2023-07-13T12:45:01;5.88;;;2.00;;
53052;SDS011;38934;52.690;6.184;2023-07-13T12:47:49;6.50;;;2.15;;
53052;SDS011;38934;52.690;6.184;2023-07-13T12:50:28;4.45;;;1.95;;
53052;SDS011;38934;52.690;6.184;2023-07-13T12:52:59;4.63;;;1.85;;
53052;SDS011;38934;52.690;6.184;2023-07-13T12:55:43;6.03;;;1.85;;
53052;SDS011;38934;52.690;6.184;2023-07-13T12:58:36;4.18;;;1.88;;
53052;SDS011;38934;52.690;6.184;2023-07-13T13:01:05;4.22;;;1.80;;
53052;SDS011;38934;52.690;6.184;2023-07-13T13:03:44;6.00;;;1.83;;
53052;SDS011;38934;52.690;6.184;2023-07-13T13:08:47;3.80;;;1.80;;
53052;SDS011;38934;52.690;6.184;2023-07-13T13:11:24;4.32;;;2.30;;
53052;SDS011;38934;52.690;6.184;2023-07-13T13:13:51;6.22;;;2.10;;
53052;SDS011;38934;52.690;6.184;2023-07-13T13:18:46;3.22;;;1.85;;
53052;SDS011;38934;52.690;6.184;2023-07-13T13:21:13;4.38;;;1.98;;
53052;SDS011;38934;52.690;6.184;2023-07-13T13:23:38;5.30;;;1.90;;
53052;SDS011;38934;52.690;6.184;2023-07-13T13:26:11;3.35;;;1.70;;
53052;SDS011;38934;52.690;6.184;2023-07-13T13:28:38;3.83;;;1.75;;
53052;SDS011;38934;52.690;6.184;2023-07-13T13:31:07;5.18;;;1.83;;
53052;SDS011;38934;52.690;6.184;2023-07-13T13:33:38;2.95;;;1.58;;
53052;SDS011;38934;52.690;6.184;2023-07-13T13:36:18;4.40;;;2.00;;
53052;SDS011;38934;52.690;6.184;2023-07-13T13:38:48;3.17;;;1.88;;
53052;SDS011;38934;52.690;6.184;2023-07-13T13:41:17;4.55;;;1.70;;
53052;SDS011;38934;52.690;6.184;2023-07-13T13:43:45;4.10;;;1.85;;
53052;SDS011;38934;52.690;6.184;2023-07-13T13:46:24;5.13;;;2.00;;
53052;SDS011;38934;52.690;6.184;2023-07-13T13:48:50;3.65;;;1.95;;
53052;SDS011;38934;52.690;6.184;2023-07-13T13:51:21;4.72;;;1.92;;
53052;SDS011;38934;52.690;6.184;2023-07-13T13:53:48;7.00;;;1.83;;
53052;SDS011;38934;52.690;6.184;2023-07-13T13:56:15;5.07;;;1.88;;
53052;SDS011;38934;52.690;6.184;2023-07-13T13:58:43;4.25;;;1.88;;
53052;SDS011;38934;52.690;6.184;2023-07-13T14:01:22;3.92;;;2.00;;
53052;SDS011;38934;52.690;6.184;2023-07-13T14:03:49;2.83;;;1.58;;
53052;SDS011;38934;52.690;6.184;2023-07-13T14:06:18;5.43;;;1.85;;
53052;SDS011;38934;52.690;6.184;2023-07-13T14:08:53;4.75;;;1.80;;
53052;SDS011;38934;52.690;6.184;2023-07-13T14:11:20;4.32;;;1.95;;
53052;SDS011;38934;52.690;6.184;2023-07-13T14:13:54;4.30;;;1.80;;
53052;SDS011;38934;52.690;6.184;2023-07-13T14:16:22;4.45;;;1.77;;
53052;SDS011;38934;52.690;6.184;2023-07-13T14:18:57;4.57;;;2.00;;
53052;SDS011;38934;52.690;6.184;2023-07-13T14:21:25;4.55;;;1.98;;
53052;SDS011;38934;52.690;6.184;2023-07-13T14:23:54;6.07;;;2.00;;
53052;SDS011;38934;52.690;6.184;2023-07-13T14:26:21;5.00;;;1.98;;
53052;SDS011;38934;52.690;6.184;2023-07-13T14:28:55;4.03;;;1.58;;
53052;SDS011;38934;52.690;6.184;2023-07-13T14:31:23;4.05;;;1.77;;
53052;SDS011;38934;52.690;6.184;2023-07-13T14:33:57;5.38;;;1.85;;
53052;SDS011;38934;52.690;6.184;2023-07-13T14:36:25;7.10;;;2.15;;
53052;SDS011;38934;52.690;6.184;2023-07-13T14:39:00;4.45;;;1.92;;
53052;SDS011;38934;52.690;6.184;2023-07-13T14:41:49;5.03;;;1.95;;
53052;SDS011;38934;52.690;6.184;2023-07-13T14:44:24;6.68;;;1.98;;
53052;SDS011;38934;52.690;6.184;2023-07-13T14:46:54;4.57;;;1.92;;
53052;SDS011;38934;52.690;6.184;2023-07-13T14:52:00;4.63;;;2.08;;
53052;SDS011;38934;52.690;6.184;2023-07-13T14:54:40;3.25;;;1.90;;
53052;SDS011;38934;52.690;6.184;2023-07-13T14:57:19;5.63;;;1.95;;
53052;SDS011;38934;52.690;6.184;2023-07-13T14:59:48;5.72;;;2.10;;
53052;SDS011;38934;52.690;6.184;2023-07-13T15:04:52;5.55;;;2.22;;
53052;SDS011;38934;52.690;6.184;2023-07-13T15:07:19;4.40;;;2.20;;
53052;SDS011;38934;52.690;6.184;2023-07-13T15:09:46;3.85;;;2.00;;
53052;SDS011;38934;52.690;6.184;2023-07-13T15:12:16;5.38;;;2.17;;
53052;SDS011;38934;52.690;6.184;2023-07-13T15:14:43;6.70;;;2.20;;
53052;SDS011;38934;52.690;6.184;2023-07-13T15:17:19;4.07;;;2.00;;
53052;SDS011;38934;52.690;6.184;2023-07-13T15:20:04;5.75;;;2.10;;
53052;SDS011;38934;52.690;6.184;2023-07-13T15:22:42;8.70;;;2.25;;
53052;SDS011;38934;52.690;6.184;2023-07-13T15:25:15;4.90;;;2.33;;
53052;SDS011;38934;52.690;6.184;2023-07-13T15:27:43;4.30;;;2.05;;
53052;SDS011;38934;52.690;6.184;2023-07-13T15:30:09;6.38;;;2.13;;
53052;SDS011;38934;52.690;6.184;2023-07-13T15:32:35;3.92;;;2.00;;
53052;SDS011;38934;52.690;6.184;2023-07-13T15:35:01;5.00;;;1.95;;
53052;SDS011;38934;52.690;6.184;2023-07-13T15:37:27;7.32;;;2.00;;
53052;SDS011;38934;52.690;6.184;2023-07-13T15:39:52;4.13;;;1.67;;
53052;SDS011;38934;52.690;6.184;2023-07-13T15:42:19;4.32;;;2.08;;
53052;SDS011;38934;52.690;6.184;2023-07-13T15:44:46;5.22;;;2.03;;
53052;SDS011;38934;52.690;6.184;2023-07-13T15:47:12;4.47;;;2.03;;
53052;SDS011;38934;52.690;6.184;2023-07-13T15:49:39;6.00;;;2.17;;